Sulphur Springs, Texas
Current Conditions -  °F | °C
As of 3:35 PM on Friday 28 Nov 2014 (Local Time) from KSLR Reporting Station
Clear Clear  
Wind Chill: 68°   Ceiling: Unl
Heat Index: 68°   Visibility: 10mi
Dew Point: 48°   Wind: 22mph
Humidity: 49%   Direction: 200°SSW
Pressure: 30.09"   Gusts: 28mph
Location:  33.14°N, 95.6°W
Report Text: KSLR 282135Z AUTO 20019G24KT 10SM CLR 20/09 A3009 RMK AO2 T02010090
Loading
Personal Weather Stations






























Interactive Weather Map New forecast layout! Learn more

10-Day Weather Forecast

Advertisements
Track Severe Weather on mobile